EDVK

Kassel-Calden Airport

Kassel, Germany
METAR EDVK 231920Z 08010KT CAVOK M03/M11 Q1022
Observed Flight Rules
Feb-23 @ 19:20 UTC (3 hours ago) Visual Flight Rules
Wind Visibility Clouds
80° at 10 knots 10,000+ meters
  • Clear skies
Temperatures Readings
Current -3°C / 27°F
Dewpoint -11°C / 12°F
Humidity 54%
Altimeter 30.18" Hg
Pressure 1022 hPa
Elevation 285
METAR EDVK 231920Z 08010KT CAVOK M03/M11 Q1022
Observed Flight Rules
Feb-23 @ 19:20 UTC
(3 hours ago)
VFR
Wind Visibility
80° at 10 knots 10,000+ meters
Clouds
  • Clear skies
Temperature Dewpoint
-3°C / 27°F -11°C / 12°F
Humidity Altimeter Pressure
54% 30.18" Hg 1022 hPa